Aérodrome :
LOGIN :

S'inscrire | Disclaimer

   EN    FR    IT 

 










Légende :    VFR   VFR Marginal   IFR   IFR Intensif   IFR Très Intensif
Visi : 
Plafond : 
>= 8 km
>= 3000ft
5 à 8 km
1000 à 3000 ft
1500m à 5 km
500 à 1000 ft
800 à 1500m
200 à 500 ft
< 800m
< 200 ft
Symboles :   Orages  Brouillard  Fortes neiges  Fortes précipitations  Vent > 20 kt
SIGMETs :   Divers  Orages  Givrage  Turbulence  Onde Orograph.  Cendres Volcan.







- Altitude de l'aérodrome : 267 ft


EGDR - Culdrose Navy

DERNIER METAR :
  • 221425Z 29011KT 9999 FEW014 SCT040 BKN080 07/03 Q1003 BLU TEMPO 7000 -SHRA FEW014 SCT020TCU WHT

METARs EXPIRÉS :
  • 221350Z 30011KT 9999 FEW014 SCT040 BKN080 07/04 Q1003 BLU TEMPO 7000 -SHRA FEW014 SCT020TCU WHT
  • 221319Z 29013KT 9999 VCSH FEW014 SCT040 BKN080 06/03 Q1004 BLU TEMPO 7000 -SHRA FEW014 SCT020TCU WHT
  • 221250Z 30014KT 9999 VCSH SCT017CB SCT050 BKN080 07/03 Q1004 WHT TEMPO 4000 SHRA SCT012 BKN015TCU GRN
  • 221224Z 29013KT 9999 VCSH FEW014 FEW017CB SCT050 BKN080 07/04 Q1004 BLU TEMPO 4000 SHRA SCT012 BKN015TCU GRN
  • 221150Z 27009KT 9999 -SHRA FEW017CB SCT050 BKN080 07/04 Q1005 BLU TEMPO 4000 SHRA SCT012 BKN015TCU GRN

TAF TAF EGDR
Valide du 22 à 15h jusqu'au 23 à 00h UTC


221343Z 2215/2224 29015G25KT 9999 FEW020 SCT040
TEMPO 2215/2224 6000 -SHRA SCT015TCU
TEMPO 2215/2224 29015G35KT 4000 SHRA SCT012 BKN015TCU
BECMG 2221/2224 32010KT
Pas de NOTAMs connus pour ce terrain.
1 SIGMET publié pour la FIR London (EGTT) :
 
Turbulence forte
EGTT SIGMET 02 VALID 221430/221830 EGRR
EGTT LONDON FIR SEV TURB FCST WI N5500 W00530 - N5500 W00400 - N5334 W00245 - N5124 W00151 - N5107 W00402 - N5355 W00530 - N5500 W00530 FL160/400 MOV E 15KT NC=



MET'MAP, la Météo Aéronautique d'un coup d'oeil ! - Copyright ORBIFLY Décembre 2007 - Disclaimer

ORBIFLY MET'MAP TEAM :

Programmation & Développement : Alexandra Zaïnal
Conception & Développement : Baudouin d'Aumeries
Co-Programmation & Développement : Marc-Olivier Méhu
Soutien technique & logistique : Manuel Goepfert

Contact : metmap@orbifly.com




SOURCES & CREDITS :

   NOAA